sensor_id;sensor_type;location;lat;lon;timestamp;pressure;altitude;pressure_sealevel;temperature;humidity
75438;BME280;64015;49.392;15.582;2023-05-10T00:00:39;95467.47;;;7.56;76.61
75438;BME280;64015;49.392;15.582;2023-05-10T00:03:18;95437.44;;;7.36;76.18
75438;BME280;64015;49.392;15.582;2023-05-10T00:05:45;95442.69;;;7.36;76.83
75438;BME280;64015;49.392;15.582;2023-05-10T00:08:10;95460.56;;;7.44;77.48
75438;BME280;64015;49.392;15.582;2023-05-10T00:10:36;95461.41;;;7.50;77.30
75438;BME280;64015;49.392;15.582;2023-05-10T00:13:03;95452.44;;;7.41;76.60
75438;BME280;64015;49.392;15.582;2023-05-10T00:15:29;95454.28;;;7.45;77.01
75438;BME280;64015;49.392;15.582;2023-05-10T00:17:56;95454.53;;;7.44;77.62
75438;BME280;64015;49.392;15.582;2023-05-10T00:20:22;95442.63;;;7.26;78.30
75438;BME280;64015;49.392;15.582;2023-05-10T00:22:48;95446.13;;;7.42;77.97
75438;BME280;64015;49.392;15.582;2023-05-10T00:25:14;95446.34;;;7.35;78.37
75438;BME280;64015;49.392;15.582;2023-05-10T00:27:39;95449.28;;;7.39;78.53
75438;BME280;64015;49.392;15.582;2023-05-10T00:30:22;95398.72;;;7.06;78.78
75438;BME280;64015;49.392;15.582;2023-05-10T00:33:01;95396.88;;;7.02;79.18
75438;BME280;64015;49.392;15.582;2023-05-10T00:41:42;95371.84;;;6.84;79.70
75438;BME280;64015;49.392;15.582;2023-05-10T00:44:13;95428.72;;;7.21;80.38
75438;BME280;64015;49.392;15.582;2023-05-10T00:46:39;95438.66;;;7.19;80.40
75438;BME280;64015;49.392;15.582;2023-05-10T00:49:05;95439.41;;;7.14;80.29
75438;BME280;64015;49.392;15.582;2023-05-10T00:51:31;95427.38;;;7.18;80.50
75438;BME280;64015;49.392;15.582;2023-05-10T00:53:59;95429.97;;;7.13;81.46
75438;BME280;64015;49.392;15.582;2023-05-10T00:56:25;95425.25;;;7.15;80.47
75438;BME280;64015;49.392;15.582;2023-05-10T00:58:50;95418.69;;;7.13;80.77
75438;BME280;64015;49.392;15.582;2023-05-10T01:01:17;95419.19;;;7.09;80.37
75438;BME280;64015;49.392;15.582;2023-05-10T01:03:42;95422.06;;;7.08;80.05
75438;BME280;64015;49.392;15.582;2023-05-10T01:06:09;95418.41;;;7.09;80.15
75438;BME280;64015;49.392;15.582;2023-05-10T01:08:36;95416.25;;;7.01;80.59
75438;BME280;64015;49.392;15.582;2023-05-10T01:11:01;95417.59;;;7.03;79.94
75438;BME280;64015;49.392;15.582;2023-05-10T01:13:34;95415.47;;;7.00;80.15
75438;BME280;64015;49.392;15.582;2023-05-10T01:16:01;95407.34;;;7.02;80.62
75438;BME280;64015;49.392;15.582;2023-05-10T01:18:30;95397.59;;;6.92;79.97
75438;BME280;64015;49.392;15.582;2023-05-10T01:21:11;95413.63;;;7.01;80.06
75438;BME280;64015;49.392;15.582;2023-05-10T01:32:25;95402.53;;;6.84;80.13
75438;BME280;64015;49.392;15.582;2023-05-10T01:35:00;95399.91;;;6.84;79.92
75438;BME280;64015;49.392;15.582;2023-05-10T01:37:37;95401.41;;;6.74;80.87
75438;BME280;64015;49.392;15.582;2023-05-10T01:40:42;95403.22;;;6.74;80.99
75438;BME280;64015;49.392;15.582;2023-05-10T01:43:23;95384.50;;;6.55;81.01
75438;BME280;64015;49.392;15.582;2023-05-10T01:48:22;95389.56;;;6.67;81.02
75438;BME280;64015;49.392;15.582;2023-05-10T01:50:50;95406.06;;;6.67;81.93
75438;BME280;64015;49.392;15.582;2023-05-10T01:53:18;95401.09;;;6.66;82.24
75438;BME280;64015;49.392;15.582;2023-05-10T01:55:50;95400.31;;;6.70;82.14
75438;BME280;64015;49.392;15.582;2023-05-10T01:58:38;95407.31;;;6.60;82.41
75438;BME280;64015;49.392;15.582;2023-05-10T02:01:06;95384.97;;;6.52;82.51
75438;BME280;64015;49.392;15.582;2023-05-10T02:03:32;95402.13;;;6.65;82.17
75438;BME280;64015;49.392;15.582;2023-05-10T02:06:00;95383.94;;;6.53;82.63
75438;BME280;64015;49.392;15.582;2023-05-10T02:08:27;95391.81;;;6.58;82.40
75438;BME280;64015;49.392;15.582;2023-05-10T02:10:55;95389.22;;;6.58;82.45
75438;BME280;64015;49.392;15.582;2023-05-10T02:13:23;95392.84;;;6.52;83.38
75438;BME280;64015;49.392;15.582;2023-05-10T02:15:50;95385.22;;;6.51;83.48
75438;BME280;64015;49.392;15.582;2023-05-10T02:18:16;95393.31;;;6.49;84.09
75438;BME280;64015;49.392;15.582;2023-05-10T02:20:45;95382.00;;;6.39;84.50
75438;BME280;64015;49.392;15.582;2023-05-10T02:23:13;95382.50;;;6.35;84.77
75438;BME280;64015;49.392;15.582;2023-05-10T02:25:39;95382.50;;;6.35;84.98
75438;BME280;64015;49.392;15.582;2023-05-10T02:28:06;95379.53;;;6.27;85.46
75438;BME280;64015;49.392;15.582;2023-05-10T02:30:34;95387.41;;;6.27;85.46
75438;BME280;64015;49.392;15.582;2023-05-10T02:33:01;95356.13;;;6.15;85.60
75438;BME280;64015;49.392;15.582;2023-05-10T02:35:29;95378.28;;;6.34;86.04
75438;BME280;64015;49.392;15.582;2023-05-10T02:37:56;95371.94;;;6.25;85.38
75438;BME280;64015;49.392;15.582;2023-05-10T02:40:23;95379.53;;;6.27;85.81
75438;BME280;64015;49.392;15.582;2023-05-10T02:42:52;95386.63;;;6.31;85.52
75438;BME280;64015;49.392;15.582;2023-05-10T02:45:22;95372.16;;;6.19;86.35
75438;BME280;64015;49.392;15.582;2023-05-10T02:47:49;95368.88;;;6.07;86.46
75438;BME280;64015;49.392;15.582;2023-05-10T02:50:14;95383.41;;;6.19;87.05
75438;BME280;64015;49.392;15.582;2023-05-10T02:52:44;95377.31;;;6.14;87.13
75438;BME280;64015;49.392;15.582;2023-05-10T02:55:14;95376.34;;;6.20;86.90
75438;BME280;64015;49.392;15.582;2023-05-10T02:57:48;95358.41;;;6.07;86.91
75438;BME280;64015;49.392;15.582;2023-05-10T03:00:14;95384.44;;;6.18;87.64
75438;BME280;64015;49.392;15.582;2023-05-10T03:02:40;95365.16;;;6.03;87.64
75438;BME280;64015;49.392;15.582;2023-05-10T03:05:07;95374.13;;;6.07;88.31
75438;BME280;64015;49.392;15.582;2023-05-10T03:07:33;95375.91;;;6.01;87.81
75438;BME280;64015;49.392;15.582;2023-05-10T03:09:59;95364.69;;;6.06;87.74
75438;BME280;64015;49.392;15.582;2023-05-10T03:18:03;95371.50;;;6.07;88.08
75438;BME280;64015;49.392;15.582;2023-05-10T03:20:43;95383.50;;;6.03;88.63
75438;BME280;64015;49.392;15.582;2023-05-10T03:25:43;95379.22;;;5.91;89.16
75438;BME280;64015;49.392;15.582;2023-05-10T03:28:09;95382.44;;;5.98;89.26
75438;BME280;64015;49.392;15.582;2023-05-10T03:30:35;95379.34;;;6.07;89.76
75438;BME280;64015;49.392;15.582;2023-05-10T03:33:05;95331.97;;;5.81;89.68
75438;BME280;64015;49.392;15.582;2023-05-10T03:35:34;95377.78;;;6.06;89.52
75438;BME280;64015;49.392;15.582;2023-05-10T03:38:00;95368.56;;;6.03;89.90
75438;BME280;64015;49.392;15.582;2023-05-10T03:40:26;95378.81;;;6.05;90.08
75438;BME280;64015;49.392;15.582;2023-05-10T03:42:54;95357.25;;;5.92;89.68
75438;BME280;64015;49.392;15.582;2023-05-10T03:45:20;95372.53;;;6.06;89.98
75438;BME280;64015;49.392;15.582;2023-05-10T03:47:46;95371.81;;;6.10;89.61
75438;BME280;64015;49.392;15.582;2023-05-10T03:50:12;95361.06;;;6.12;89.94
75438;BME280;64015;49.392;15.582;2023-05-10T03:52:38;95361.06;;;6.12;90.20
75438;BME280;64015;49.392;15.582;2023-05-10T03:55:05;95357.63;;;6.06;90.32
75438;BME280;64015;49.392;15.582;2023-05-10T03:57:31;95370.06;;;6.21;89.29
75438;BME280;64015;49.392;15.582;2023-05-10T03:59:57;95375.09;;;6.27;90.05
75438;BME280;64015;49.392;15.582;2023-05-10T04:02:23;95367.47;;;6.26;89.73
75438;BME280;64015;49.392;15.582;2023-05-10T04:04:49;95354.63;;;6.24;89.77
75438;BME280;64015;49.392;15.582;2023-05-10T04:07:14;95359.88;;;6.24;90.25
75438;BME280;64015;49.392;15.582;2023-05-10T04:09:40;95366.47;;;6.32;90.09
75438;BME280;64015;49.392;15.582;2023-05-10T04:12:06;95356.50;;;6.29;90.28
75438;BME280;64015;49.392;15.582;2023-05-10T04:14:32;95353.63;;;6.30;90.58
75438;BME280;64015;49.392;15.582;2023-05-10T04:16:57;95366.56;;;6.42;90.59
75438;BME280;64015;49.392;15.582;2023-05-10T04:19:23;95374.00;;;6.55;90.15
75438;BME280;64015;49.392;15.582;2023-05-10T04:21:49;95345.91;;;6.46;89.73
75438;BME280;64015;49.392;15.582;2023-05-10T04:24:14;95345.69;;;6.52;89.97
75438;BME280;64015;49.392;15.582;2023-05-10T04:26:40;95336.47;;;6.50;89.25
75438;BME280;64015;49.392;15.582;2023-05-10T04:29:06;95371.00;;;6.79;89.31
75438;BME280;64015;49.392;15.582;2023-05-10T04:31:31;95370.22;;;6.78;89.92
75438;BME280;64015;49.392;15.582;2023-05-10T04:33:57;95378.69;;;6.85;89.53
75438;BME280;64015;49.392;15.582;2023-05-10T04:36:23;95370.81;;;6.85;89.40
75438;BME280;64015;49.392;15.582;2023-05-10T04:38:49;95372.16;;;6.93;89.49
75438;BME280;64015;49.392;15.582;2023-05-10T04:41:14;95364.84;;;6.95;89.54
75438;BME280;64015;49.392;15.582;2023-05-10T04:43:40;95339.06;;;6.82;89.35
75438;BME280;64015;49.392;15.582;2023-05-10T04:46:06;95351.69;;;6.90;89.29
75438;BME280;64015;49.392;15.582;2023-05-10T04:48:33;95361.97;;;7.01;89.04
75438;BME280;64015;49.392;15.582;2023-05-10T04:50:58;95372.28;;;7.13;89.54
75438;BME280;64015;49.392;15.582;2023-05-10T04:53:25;95341.75;;;6.97;88.77
75438;BME280;64015;49.392;15.582;2023-05-10T04:55:50;95376.00;;;7.22;88.96
75438;BME280;64015;49.392;15.582;2023-05-10T04:58:16;95376.56;;;7.29;88.87
75438;BME280;64015;49.392;15.582;2023-05-10T05:00:42;95369.22;;;7.31;88.45
75438;BME280;64015;49.392;15.582;2023-05-10T05:03:08;95379.19;;;7.34;88.36
75438;BME280;64015;49.392;15.582;2023-05-10T05:05:33;95377.41;;;7.45;88.17
75438;BME280;64015;49.392;15.582;2023-05-10T05:07:59;95366.09;;;7.39;88.20
75438;BME280;64015;49.392;15.582;2023-05-10T05:10:24;95380.06;;;7.60;87.74
75438;BME280;64015;49.392;15.582;2023-05-10T05:12:50;95390.84;;;7.59;87.76
75438;BME280;64015;49.392;15.582;2023-05-10T05:15:16;95376.44;;;7.66;87.20
75438;BME280;64015;49.392;15.582;2023-05-10T05:17:43;95382.25;;;7.83;86.80
75438;BME280;64015;49.392;15.582;2023-05-10T05:20:09;95368.59;;;7.81;86.95
75438;BME280;64015;49.392;15.582;2023-05-10T05:22:36;95383.59;;;7.96;86.30
75438;BME280;64015;49.392;15.582;2023-05-10T05:25:02;95363.63;;;7.85;86.53
75438;BME280;64015;49.392;15.582;2023-05-10T05:27:29;95369.41;;;7.92;86.08
75438;BME280;64015;49.392;15.582;2023-05-10T05:29:55;95368.91;;;8.00;86.51
75438;BME280;64015;49.392;15.582;2023-05-10T05:32:22;95384.69;;;8.05;86.50
75438;BME280;64015;49.392;15.582;2023-05-10T05:34:47;95387.84;;;8.12;85.65
75438;BME280;64015;49.392;15.582;2023-05-10T05:37:14;95371.53;;;8.10;86.23
75438;BME280;64015;49.392;15.582;2023-05-10T05:39:40;95368.94;;;8.20;86.33
75438;BME280;64015;49.392;15.582;2023-05-10T05:42:06;95365.00;;;8.23;86.07
75438;BME280;64015;49.392;15.582;2023-05-10T05:44:31;95367.66;;;8.38;85.01
75438;BME280;64015;49.392;15.582;2023-05-10T05:46:57;95352.94;;;8.32;85.27
75438;BME280;64015;49.392;15.582;2023-05-10T05:49:22;95368.97;;;8.56;85.15
75438;BME280;64015;49.392;15.582;2023-05-10T05:51:48;95346.34;;;8.55;85.18
75438;BME280;64015;49.392;15.582;2023-05-10T05:54:15;95381.59;;;8.69;84.34
75438;BME280;64015;49.392;15.582;2023-05-10T05:56:41;95363.44;;;8.63;84.52
75438;BME280;64015;49.392;15.582;2023-05-10T05:59:07;95357.13;;;8.69;84.30
75438;BME280;64015;49.392;15.582;2023-05-10T06:01:33;95375.50;;;8.94;83.79
75438;BME280;64015;49.392;15.582;2023-05-10T06:03:59;95369.94;;;9.11;83.00
75438;BME280;64015;49.392;15.582;2023-05-10T06:06:24;95375.97;;;9.21;82.85
75438;BME280;64015;49.392;15.582;2023-05-10T06:08:50;95359.91;;;9.23;81.91
75438;BME280;64015;49.392;15.582;2023-05-10T06:11:16;95378.28;;;9.43;81.63
75438;BME280;64015;49.392;15.582;2023-05-10T06:13:42;95363.56;;;9.27;80.38
75438;BME280;64015;49.392;15.582;2023-05-10T06:16:09;95388.28;;;9.41;80.72
75438;BME280;64015;49.392;15.582;2023-05-10T06:18:35;95380.63;;;9.50;80.49
75438;BME280;64015;49.392;15.582;2023-05-10T06:21:01;95377.72;;;9.46;79.15
75438;BME280;64015;49.392;15.582;2023-05-10T06:23:27;95388.19;;;9.66;80.07
75438;BME280;64015;49.392;15.582;2023-05-10T06:25:53;95368.19;;;9.60;79.39
75438;BME280;64015;49.392;15.582;2023-05-10T06:28:19;95354.69;;;9.77;79.28
75438;BME280;64015;49.392;15.582;2023-05-10T06:30:46;95379.03;;;10.03;78.83
75438;BME280;64015;49.392;15.582;2023-05-10T06:33:12;95387.22;;;10.01;77.79
75438;BME280;64015;49.392;15.582;2023-05-10T06:35:38;95375.44;;;9.89;78.15
75438;BME280;64015;49.392;15.582;2023-05-10T06:38:04;95343.19;;;10.02;78.17
75438;BME280;64015;49.392;15.582;2023-05-10T06:40:30;95359.53;;;10.09;77.11
75438;BME280;64015;49.392;15.582;2023-05-10T06:43:05;95396.38;;;10.19;75.76
75438;BME280;64015;49.392;15.582;2023-05-10T06:45:33;95384.78;;;10.15;76.27
75438;BME280;64015;49.392;15.582;2023-05-10T06:48:05;95360.06;;;10.06;76.68
75438;BME280;64015;49.392;15.582;2023-05-10T06:50:31;95392.81;;;10.39;76.94
75438;BME280;64015;49.392;15.582;2023-05-10T06:52:58;95385.59;;;10.55;75.70
75438;BME280;64015;49.392;15.582;2023-05-10T06:55:33;95318.31;;;10.23;75.92
75438;BME280;64015;49.392;15.582;2023-05-10T06:58:00;95361.25;;;10.63;74.65
75438;BME280;64015;49.392;15.582;2023-05-10T07:00:26;95378.44;;;10.89;76.05
75438;BME280;64015;49.392;15.582;2023-05-10T07:02:52;95372.47;;;10.78;75.21
75438;BME280;64015;49.392;15.582;2023-05-10T07:05:28;95377.41;;;10.85;74.95
75438;BME280;64015;49.392;15.582;2023-05-10T07:08:00;95377.81;;;10.97;73.96
75438;BME280;64015;49.392;15.582;2023-05-10T07:10:29;95370.56;;;10.84;74.55
75438;BME280;64015;49.392;15.582;2023-05-10T07:12:55;95343.63;;;10.87;74.00
75438;BME280;64015;49.392;15.582;2023-05-10T07:15:27;95359.25;;;11.07;73.90
75438;BME280;64015;49.392;15.582;2023-05-10T07:17:54;95353.88;;;11.17;73.22
75438;BME280;64015;49.392;15.582;2023-05-10T07:20:20;95364.78;;;11.35;74.05
75438;BME280;64015;49.392;15.582;2023-05-10T07:22:45;95350.66;;;10.97;72.40
75438;BME280;64015;49.392;15.582;2023-05-10T07:25:14;95381.78;;;11.23;73.08
75438;BME280;64015;49.392;15.582;2023-05-10T07:27:39;95384.66;;;11.51;74.18
75438;BME280;64015;49.392;15.582;2023-05-10T07:30:06;95377.19;;;11.34;72.88
75438;BME280;64015;49.392;15.582;2023-05-10T07:32:32;95363.78;;;11.49;72.92
75438;BME280;64015;49.392;15.582;2023-05-10T07:34:58;95388.97;;;11.89;72.74
75438;BME280;64015;49.392;15.582;2023-05-10T07:37:24;95368.72;;;12.04;70.82
75438;BME280;64015;49.392;15.582;2023-05-10T07:39:51;95377.69;;;11.84;71.91
75438;BME280;64015;49.392;15.582;2023-05-10T07:42:16;95385.63;;;11.84;70.63
75438;BME280;64015;49.392;15.582;2023-05-10T07:44:43;95375.94;;;11.74;70.90
75438;BME280;64015;49.392;15.582;2023-05-10T07:47:09;95369.56;;;11.99;70.79
75438;BME280;64015;49.392;15.582;2023-05-10T07:49:37;95352.41;;;11.96;71.72
75438;BME280;64015;49.392;15.582;2023-05-10T07:52:03;95352.25;;;11.88;70.89
75438;BME280;64015;49.392;15.582;2023-05-10T07:54:29;95380.13;;;12.18;71.25
75438;BME280;64015;49.392;15.582;2023-05-10T07:56:55;95370.56;;;12.03;72.61
75438;BME280;64015;49.392;15.582;2023-05-10T07:59:22;95380.41;;;12.35;70.88
75438;BME280;64015;49.392;15.582;2023-05-10T08:01:48;95371.69;;;12.34;69.97
75438;BME280;64015;49.392;15.582;2023-05-10T08:04:14;95381.41;;;12.58;69.89
75438;BME280;64015;49.392;15.582;2023-05-10T08:06:40;95383.91;;;12.82;70.04
75438;BME280;64015;49.392;15.582;2023-05-10T08:09:06;95374.47;;;13.08;68.18
75438;BME280;64015;49.392;15.582;2023-05-10T08:11:31;95367.19;;;13.00;67.62
75438;BME280;64015;49.392;15.582;2023-05-10T08:13:57;95397.06;;;13.19;68.36
75438;BME280;64015;49.392;15.582;2023-05-10T08:16:23;95392.13;;;13.13;67.17
75438;BME280;64015;49.392;15.582;2023-05-10T08:18:49;95384.47;;;13.43;67.36
75438;BME280;64015;49.392;15.582;2023-05-10T08:21:16;95379.25;;;13.52;66.80
75438;BME280;64015;49.392;15.582;2023-05-10T08:23:42;95383.28;;;13.50;66.93
75438;BME280;64015;49.392;15.582;2023-05-10T08:26:09;95368.84;;;13.56;68.10
75438;BME280;64015;49.392;15.582;2023-05-10T08:28:40;95389.19;;;14.10;66.20
75438;BME280;64015;49.392;15.582;2023-05-10T08:31:06;95385.44;;;14.25;63.83
75438;BME280;64015;49.392;15.582;2023-05-10T08:33:32;95399.94;;;14.05;63.23
75438;BME280;64015;49.392;15.582;2023-05-10T08:36:06;95391.13;;;14.18;61.42
75438;BME280;64015;49.392;15.582;2023-05-10T08:38:32;95385.53;;;14.19;61.20
75438;BME280;64015;49.392;15.582;2023-05-10T08:40:58;95396.63;;;14.35;59.57
75438;BME280;64015;49.392;15.582;2023-05-10T08:43:35;95394.66;;;14.41;58.78
75438;BME280;64015;49.392;15.582;2023-05-10T08:46:01;95375.06;;;14.14;60.53
75438;BME280;64015;49.392;15.582;2023-05-10T08:48:29;95393.00;;;14.45;59.58
75438;BME280;64015;49.392;15.582;2023-05-10T08:51:01;95357.28;;;14.51;58.98
75438;BME280;64015;49.392;15.582;2023-05-10T08:53:31;95392.16;;;14.80;58.58
75438;BME280;64015;49.392;15.582;2023-05-10T08:55:58;95389.84;;;14.87;56.07
75438;BME280;64015;49.392;15.582;2023-05-10T08:58:25;95373.38;;;14.77;55.84
75438;BME280;64015;49.392;15.582;2023-05-10T09:00:50;95379.16;;;14.56;56.71
75438;BME280;64015;49.392;15.582;2023-05-10T09:03:17;95392.66;;;14.82;56.79
75438;BME280;64015;49.392;15.582;2023-05-10T09:05:46;95398.09;;;15.39;54.84
75438;BME280;64015;49.392;15.582;2023-05-10T09:08:13;95399.25;;;15.47;55.65
75438;BME280;64015;49.392;15.582;2023-05-10T09:10:43;95404.81;;;15.67;56.66
75438;BME280;64015;49.392;15.582;2023-05-10T09:13:11;95398.44;;;15.77;54.80
75438;BME280;64015;49.392;15.582;2023-05-10T09:15:38;95381.44;;;16.13;54.56
75438;BME280;64015;49.392;15.582;2023-05-10T09:18:04;95405.44;;;16.56;52.12
75438;BME280;64015;49.392;15.582;2023-05-10T09:20:30;95399.63;;;16.19;52.64
75438;BME280;64015;49.392;15.582;2023-05-10T09:22:57;95394.50;;;16.40;52.01
75438;BME280;64015;49.392;15.582;2023-05-10T09:25:23;95414.84;;;16.36;52.54
75438;BME280;64015;49.392;15.582;2023-05-10T09:27:49;95409.31;;;16.07;54.59
75438;BME280;64015;49.392;15.582;2023-05-10T09:30:23;95412.19;;;16.45;52.33
75438;BME280;64015;49.392;15.582;2023-05-10T09:32:50;95414.19;;;16.22;52.11
75438;BME280;64015;49.392;15.582;2023-05-10T09:35:18;95420.00;;;16.50;52.02
75438;BME280;64015;49.392;15.582;2023-05-10T09:37:47;95413.47;;;16.73;52.46
75438;BME280;64015;49.392;15.582;2023-05-10T09:40:18;95421.06;;;16.14;51.89
75438;BME280;64015;49.392;15.582;2023-05-10T09:45:17;95404.19;;;16.53;52.15
75438;BME280;64015;49.392;15.582;2023-05-10T09:47:45;95425.22;;;16.72;50.12
75438;BME280;64015;49.392;15.582;2023-05-10T09:50:11;95429.56;;;16.42;50.71
75438;BME280;64015;49.392;15.582;2023-05-10T09:53:01;95429.22;;;15.70;52.69
75438;BME280;64015;49.392;15.582;2023-05-10T09:55:45;95416.25;;;15.77;54.04
75438;BME280;64015;49.392;15.582;2023-05-10T09:58:13;95422.59;;;15.58;55.61
75438;BME280;64015;49.392;15.582;2023-05-10T10:00:44;95413.41;;;16.21;53.07
75438;BME280;64015;49.392;15.582;2023-05-10T10:03:25;95427.38;;;16.44;53.20
75438;BME280;64015;49.392;15.582;2023-05-10T10:06:03;95388.72;;;15.73;55.22
75438;BME280;64015;49.392;15.582;2023-05-10T10:08:33;95397.22;;;15.92;52.53
75438;BME280;64015;49.392;15.582;2023-05-10T10:11:07;95438.38;;;15.94;53.02
75438;BME280;64015;49.392;15.582;2023-05-10T10:13:34;95409.19;;;16.12;53.12
75438;BME280;64015;49.392;15.582;2023-05-10T10:16:00;95403.88;;;16.20;52.55
75438;BME280;64015;49.392;15.582;2023-05-10T10:18:28;95421.13;;;16.49;52.93
75438;BME280;64015;49.392;15.582;2023-05-10T10:20:56;95414.25;;;16.65;51.60
75438;BME280;64015;49.392;15.582;2023-05-10T10:23:22;95411.88;;;16.89;52.23
75438;BME280;64015;49.392;15.582;2023-05-10T10:25:53;95412.50;;;16.95;50.96
75438;BME280;64015;49.392;15.582;2023-05-10T10:31:21;95408.69;;;17.22;50.21
75438;BME280;64015;49.392;15.582;2023-05-10T10:34:25;95397.44;;;17.07;50.59
75438;BME280;64015;49.392;15.582;2023-05-10T10:36:54;95421.50;;;17.37;51.36
75438;BME280;64015;49.392;15.582;2023-05-10T10:39:21;95400.53;;;17.27;50.60
75438;BME280;64015;49.392;15.582;2023-05-10T10:47:21;95403.34;;;17.30;48.85
75438;BME280;64015;49.392;15.582;2023-05-10T10:57:54;95410.97;;;17.96;48.43
75438;BME280;64015;49.392;15.582;2023-05-10T11:03:14;95395.88;;;17.06;48.26
75438;BME280;64015;49.392;15.582;2023-05-10T11:05:48;95404.72;;;17.36;49.09
75438;BME280;64015;49.392;15.582;2023-05-10T11:08:34;95405.94;;;17.94;49.54
75438;BME280;64015;49.392;15.582;2023-05-10T11:11:04;95381.38;;;17.42;49.84
75438;BME280;64015;49.392;15.582;2023-05-10T11:13:41;95403.53;;;18.01;48.43
75438;BME280;64015;49.392;15.582;2023-05-10T11:16:31;95402.50;;;17.94;48.99
75438;BME280;64015;49.392;15.582;2023-05-10T11:19:19;95383.44;;;18.04;47.63
75438;BME280;64015;49.392;15.582;2023-05-10T11:21:47;95401.56;;;17.89;48.95
75438;BME280;64015;49.392;15.582;2023-05-10T11:24:27;95421.81;;;17.44;48.24
75438;BME280;64015;49.392;15.582;2023-05-10T11:26:56;95398.88;;;17.05;48.58
75438;BME280;64015;49.392;15.582;2023-05-10T11:29:22;95396.53;;;16.69;49.93
75438;BME280;64015;49.392;15.582;2023-05-10T11:31:58;95420.97;;;16.88;49.02
75438;BME280;64015;49.392;15.582;2023-05-10T11:34:26;95420.06;;;16.67;50.29
75438;BME280;64015;49.392;15.582;2023-05-10T11:36:54;95411.19;;;18.61;47.88
75438;BME280;64015;49.392;15.582;2023-05-10T11:39:45;95400.06;;;18.92;45.23
75438;BME280;64015;49.392;15.582;2023-05-10T11:42:12;95405.22;;;17.30;49.53
75438;BME280;64015;49.392;15.582;2023-05-10T11:44:40;95390.25;;;17.93;47.90
75438;BME280;64015;49.392;15.582;2023-05-10T11:47:13;95355.94;;;17.82;46.38
75438;BME280;64015;49.392;15.582;2023-05-10T11:53:32;95364.03;;;17.95;45.93
75438;BME280;64015;49.392;15.582;2023-05-10T11:56:13;95406.19;;;18.93;44.56
75438;BME280;64015;49.392;15.582;2023-05-10T11:58:39;95384.16;;;18.96;42.86
75438;BME280;64015;49.392;15.582;2023-05-10T12:01:06;95405.84;;;18.61;43.99
75438;BME280;64015;49.392;15.582;2023-05-10T12:03:33;95406.91;;;19.47;42.76
75438;BME280;64015;49.392;15.582;2023-05-10T12:05:59;95371.03;;;20.21;39.73
75438;BME280;64015;49.392;15.582;2023-05-10T12:08:28;95405.38;;;20.56;40.63
75438;BME280;64015;49.392;15.582;2023-05-10T12:11:04;95391.25;;;19.70;42.29
75438;BME280;64015;49.392;15.582;2023-05-10T12:13:31;95371.84;;;19.73;41.64
75438;BME280;64015;49.392;15.582;2023-05-10T12:15:59;95418.16;;;20.74;39.02
75438;BME280;64015;49.392;15.582;2023-05-10T12:18:40;95403.84;;;22.52;35.22
75438;BME280;64015;49.392;15.582;2023-05-10T12:21:05;95403.66;;;21.31;37.38
75438;BME280;64015;49.392;15.582;2023-05-10T12:23:34;95404.97;;;22.51;34.07
75438;BME280;64015;49.392;15.582;2023-05-10T12:26:02;95392.44;;;22.04;35.09
75438;BME280;64015;49.392;15.582;2023-05-10T12:28:32;95411.25;;;22.93;35.41
75438;BME280;64015;49.392;15.582;2023-05-10T12:30:59;95406.28;;;21.90;36.94
75438;BME280;64015;49.392;15.582;2023-05-10T12:37:09;95408.09;;;25.00;31.20
75438;BME280;64015;49.392;15.582;2023-05-10T12:39:53;95406.44;;;25.25;29.77
75438;BME280;64015;49.392;15.582;2023-05-10T12:42:19;95410.22;;;23.59;31.93
75438;BME280;64015;49.392;15.582;2023-05-10T12:44:45;95420.84;;;22.05;35.45
75438;BME280;64015;49.392;15.582;2023-05-10T12:47:10;95418.38;;;21.09;38.42
75438;BME280;64015;49.392;15.582;2023-05-10T12:49:36;95407.38;;;20.86;39.65
75438;BME280;64015;49.392;15.582;2023-05-10T12:52:02;95416.66;;;21.17;39.02
75438;BME280;64015;49.392;15.582;2023-05-10T12:54:27;95397.72;;;22.70;35.13
75438;BME280;64015;49.392;15.582;2023-05-10T12:56:53;95398.00;;;23.65;34.80
75438;BME280;64015;49.392;15.582;2023-05-10T12:59:19;95403.88;;;22.01;36.90
75438;BME280;64015;49.392;15.582;2023-05-10T13:01:45;95389.66;;;20.42;39.45
75438;BME280;64015;49.392;15.582;2023-05-10T13:04:11;95398.91;;;21.87;37.27
75438;BME280;64015;49.392;15.582;2023-05-10T13:06:39;95396.47;;;22.84;35.35
75438;BME280;64015;49.392;15.582;2023-05-10T13:09:05;95390.06;;;22.18;37.08
75438;BME280;64015;49.392;15.582;2023-05-10T13:11:31;95400.53;;;21.01;39.27
75438;BME280;64015;49.392;15.582;2023-05-10T13:13:56;95382.34;;;19.90;39.88
75438;BME280;64015;49.392;15.582;2023-05-10T13:16:22;95417.28;;;18.83;42.22
75438;BME280;64015;49.392;15.582;2023-05-10T13:18:48;95409.91;;;19.33;41.68
75438;BME280;64015;49.392;15.582;2023-05-10T13:21:14;95415.34;;;18.50;43.83
75438;BME280;64015;49.392;15.582;2023-05-10T13:23:40;95400.84;;;18.93;44.25
75438;BME280;64015;49.392;15.582;2023-05-10T13:26:05;95384.03;;;19.83;41.92
75438;BME280;64015;49.392;15.582;2023-05-10T13:28:31;95413.13;;;19.72;41.41
75438;BME280;64015;49.392;15.582;2023-05-10T13:30:57;95402.84;;;19.29;42.82
75438;BME280;64015;49.392;15.582;2023-05-10T13:33:22;95409.09;;;19.78;41.80
75438;BME280;64015;49.392;15.582;2023-05-10T13:35:49;95399.94;;;19.79;40.73
75438;BME280;64015;49.392;15.582;2023-05-10T13:38:14;95405.56;;;18.96;43.96
75438;BME280;64015;49.392;15.582;2023-05-10T13:40:40;95408.47;;;19.03;42.78
75438;BME280;64015;49.392;15.582;2023-05-10T13:43:06;95393.81;;;18.26;44.81
75438;BME280;64015;49.392;15.582;2023-05-10T13:45:32;95406.03;;;18.06;46.02
75438;BME280;64015;49.392;15.582;2023-05-10T13:47:58;95402.97;;;16.76;47.76
75438;BME280;64015;49.392;15.582;2023-05-10T13:50:24;95415.03;;;16.91;48.58
75438;BME280;64015;49.392;15.582;2023-05-10T13:52:50;95414.84;;;16.88;49.16
75438;BME280;64015;49.392;15.582;2023-05-10T13:55:16;95404.22;;;16.79;48.93